sensor_id;sensor_type;location;lat;lon;timestamp;P1;durP1;ratioP1;P2;durP2;ratioP2
33357;SDS011;19717;42.614;23.418;2023-02-28T00:01:18;4.50;;;2.83;;
33357;SDS011;19717;42.614;23.418;2023-02-28T00:03:44;3.05;;;1.77;;
33357;SDS011;19717;42.614;23.418;2023-02-28T00:06:10;4.47;;;2.97;;
33357;SDS011;19717;42.614;23.418;2023-02-28T00:08:37;4.82;;;3.60;;
33357;SDS011;19717;42.614;23.418;2023-02-28T00:11:04;7.70;;;4.90;;
33357;SDS011;19717;42.614;23.418;2023-02-28T00:13:31;5.68;;;3.63;;
33357;SDS011;19717;42.614;23.418;2023-02-28T00:16:04;5.85;;;2.53;;
33357;SDS011;19717;42.614;23.418;2023-02-28T00:18:31;6.10;;;2.08;;
33357;SDS011;19717;42.614;23.418;2023-02-28T00:20:57;7.88;;;3.28;;
33357;SDS011;19717;42.614;23.418;2023-02-28T00:23:24;6.85;;;2.75;;
33357;SDS011;19717;42.614;23.418;2023-02-28T00:25:50;4.53;;;2.40;;
33357;SDS011;19717;42.614;23.418;2023-02-28T00:28:16;6.75;;;3.88;;
33357;SDS011;19717;42.614;23.418;2023-02-28T00:30:42;5.93;;;2.90;;
33357;SDS011;19717;42.614;23.418;2023-02-28T00:33:08;5.78;;;3.78;;
33357;SDS011;19717;42.614;23.418;2023-02-28T00:35:34;4.60;;;3.47;;
33357;SDS011;19717;42.614;23.418;2023-02-28T00:38:00;4.30;;;2.97;;
33357;SDS011;19717;42.614;23.418;2023-02-28T00:40:27;27.35;;;8.38;;
33357;SDS011;19717;42.614;23.418;2023-02-28T00:42:53;4.18;;;2.85;;
33357;SDS011;19717;42.614;23.418;2023-02-28T00:45:19;5.40;;;3.92;;
33357;SDS011;19717;42.614;23.418;2023-02-28T00:47:46;6.65;;;2.47;;
33357;SDS011;19717;42.614;23.418;2023-02-28T00:50:14;9.40;;;3.70;;
33357;SDS011;19717;42.614;23.418;2023-02-28T00:52:41;3.10;;;2.80;;
33357;SDS011;19717;42.614;23.418;2023-02-28T00:55:07;11.05;;;2.72;;
33357;SDS011;19717;42.614;23.418;2023-02-28T00:57:33;3.70;;;3.22;;
33357;SDS011;19717;42.614;23.418;2023-02-28T00:59:59;8.93;;;3.00;;
33357;SDS011;19717;42.614;23.418;2023-02-28T01:02:25;4.50;;;2.58;;
33357;SDS011;19717;42.614;23.418;2023-02-28T01:04:51;4.80;;;2.75;;
33357;SDS011;19717;42.614;23.418;2023-02-28T01:07:17;7.28;;;3.53;;
33357;SDS011;19717;42.614;23.418;2023-02-28T01:09:43;4.60;;;2.90;;
33357;SDS011;19717;42.614;23.418;2023-02-28T01:12:09;3.25;;;2.40;;
33357;SDS011;19717;42.614;23.418;2023-02-28T01:14:35;8.52;;;3.05;;
33357;SDS011;19717;42.614;23.418;2023-02-28T01:17:01;7.30;;;3.30;;
33357;SDS011;19717;42.614;23.418;2023-02-28T01:19:27;5.20;;;3.85;;
33357;SDS011;19717;42.614;23.418;2023-02-28T01:21:53;2.95;;;2.75;;
33357;SDS011;19717;42.614;23.418;2023-02-28T01:24:19;3.60;;;3.10;;
33357;SDS011;19717;42.614;23.418;2023-02-28T01:26:45;4.10;;;2.00;;
33357;SDS011;19717;42.614;23.418;2023-02-28T01:29:11;4.20;;;3.80;;
33357;SDS011;19717;42.614;23.418;2023-02-28T01:31:38;6.00;;;3.78;;
33357;SDS011;19717;42.614;23.418;2023-02-28T01:34:04;8.65;;;4.10;;
33357;SDS011;19717;42.614;23.418;2023-02-28T01:36:30;13.40;;;4.78;;
33357;SDS011;19717;42.614;23.418;2023-02-28T01:38:56;7.57;;;4.05;;
33357;SDS011;19717;42.614;23.418;2023-02-28T01:41:23;6.95;;;3.75;;
33357;SDS011;19717;42.614;23.418;2023-02-28T01:46:15;5.43;;;4.57;;
33357;SDS011;19717;42.614;23.418;2023-02-28T01:48:51;8.48;;;4.35;;
33357;SDS011;19717;42.614;23.418;2023-02-28T01:51:20;4.85;;;3.78;;
33357;SDS011;19717;42.614;23.418;2023-02-28T01:53:48;7.70;;;5.55;;
33357;SDS011;19717;42.614;23.418;2023-02-28T01:56:16;8.98;;;4.22;;
33357;SDS011;19717;42.614;23.418;2023-02-28T01:58:48;2.55;;;2.33;;
33357;SDS011;19717;42.614;23.418;2023-02-28T02:01:15;8.25;;;3.92;;
33357;SDS011;19717;42.614;23.418;2023-02-28T02:03:56;5.93;;;3.20;;
33357;SDS011;19717;42.614;23.418;2023-02-28T02:06:24;3.85;;;2.53;;
33357;SDS011;19717;42.614;23.418;2023-02-28T02:08:51;8.90;;;3.67;;
33357;SDS011;19717;42.614;23.418;2023-02-28T02:11:17;4.60;;;3.40;;
33357;SDS011;19717;42.614;23.418;2023-02-28T02:24:10;3.22;;;2.10;;
33357;SDS011;19717;42.614;23.418;2023-02-28T02:26:52;12.02;;;4.50;;
33357;SDS011;19717;42.614;23.418;2023-02-28T02:34:42;5.05;;;3.58;;
33357;SDS011;19717;42.614;23.418;2023-02-28T02:37:24;5.03;;;2.72;;
33357;SDS011;19717;42.614;23.418;2023-02-28T02:43:03;6.38;;;2.65;;
33357;SDS011;19717;42.614;23.418;2023-02-28T02:45:31;5.63;;;3.28;;
33357;SDS011;19717;42.614;23.418;2023-02-28T02:48:00;2.15;;;1.58;;
33357;SDS011;19717;42.614;23.418;2023-02-28T02:50:29;3.55;;;2.17;;
33357;SDS011;19717;42.614;23.418;2023-02-28T02:52:57;3.70;;;2.92;;
33357;SDS011;19717;42.614;23.418;2023-02-28T02:55:25;4.75;;;3.08;;
33357;SDS011;19717;42.614;23.418;2023-02-28T02:57:54;3.70;;;2.92;;
33357;SDS011;19717;42.614;23.418;2023-02-28T03:00:22;2.78;;;2.58;;
33357;SDS011;19717;42.614;23.418;2023-02-28T03:02:49;5.90;;;1.75;;
33357;SDS011;19717;42.614;23.418;2023-02-28T03:05:25;2.92;;;2.08;;
33357;SDS011;19717;42.614;23.418;2023-02-28T03:07:52;3.85;;;1.67;;
33357;SDS011;19717;42.614;23.418;2023-02-28T03:10:31;2.22;;;1.77;;
33357;SDS011;19717;42.614;23.418;2023-02-28T03:13:00;1.45;;;1.35;;
33357;SDS011;19717;42.614;23.418;2023-02-28T03:15:33;2.47;;;1.77;;
33357;SDS011;19717;42.614;23.418;2023-02-28T03:18:04;1.55;;;1.13;;
33357;SDS011;19717;42.614;23.418;2023-02-28T03:35:56;6.40;;;3.75;;
33357;SDS011;19717;42.614;23.418;2023-02-28T03:38:38;10.90;;;3.58;;
33357;SDS011;19717;42.614;23.418;2023-02-28T03:44:01;6.55;;;3.15;;
33357;SDS011;19717;42.614;23.418;2023-02-28T03:46:29;2.65;;;2.33;;
33357;SDS011;19717;42.614;23.418;2023-02-28T03:48:58;9.40;;;3.28;;
33357;SDS011;19717;42.614;23.418;2023-02-28T03:51:27;6.07;;;2.85;;
33357;SDS011;19717;42.614;23.418;2023-02-28T03:53:56;6.93;;;3.72;;
33357;SDS011;19717;42.614;23.418;2023-02-28T03:56:29;4.60;;;2.95;;
33357;SDS011;19717;42.614;23.418;2023-02-28T03:58:58;6.90;;;3.63;;
33357;SDS011;19717;42.614;23.418;2023-02-28T04:03:53;9.23;;;5.22;;
33357;SDS011;19717;42.614;23.418;2023-02-28T04:06:20;5.45;;;2.58;;
33357;SDS011;19717;42.614;23.418;2023-02-28T04:08:47;8.70;;;2.97;;
33357;SDS011;19717;42.614;23.418;2023-02-28T04:11:28;4.95;;;2.90;;
33357;SDS011;19717;42.614;23.418;2023-02-28T04:13:55;7.78;;;3.03;;
33357;SDS011;19717;42.614;23.418;2023-02-28T04:16:21;6.00;;;2.67;;
33357;SDS011;19717;42.614;23.418;2023-02-28T04:18:47;8.85;;;3.33;;
33357;SDS011;19717;42.614;23.418;2023-02-28T04:21:13;4.60;;;2.30;;
33357;SDS011;19717;42.614;23.418;2023-02-28T04:23:39;2.95;;;1.88;;
33357;SDS011;19717;42.614;23.418;2023-02-28T04:26:05;3.80;;;2.67;;
33357;SDS011;19717;42.614;23.418;2023-02-28T04:28:32;0.70;;;0.65;;
33357;SDS011;19717;42.614;23.418;2023-02-28T04:30:59;8.65;;;3.30;;
33357;SDS011;19717;42.614;23.418;2023-02-28T04:33:26;2.58;;;1.83;;
33357;SDS011;19717;42.614;23.418;2023-02-28T04:36:02;4.53;;;2.95;;
33357;SDS011;19717;42.614;23.418;2023-02-28T04:38:29;3.78;;;2.20;;
33357;SDS011;19717;42.614;23.418;2023-02-28T04:40:58;7.72;;;3.38;;
33357;SDS011;19717;42.614;23.418;2023-02-28T04:43:28;4.40;;;1.92;;
33357;SDS011;19717;42.614;23.418;2023-02-28T04:45:55;2.40;;;1.83;;
33357;SDS011;19717;42.614;23.418;2023-02-28T04:48:25;2.88;;;2.20;;
33357;SDS011;19717;42.614;23.418;2023-02-28T04:50:51;4.75;;;3.17;;
33357;SDS011;19717;42.614;23.418;2023-02-28T04:53:17;8.85;;;2.42;;
33357;SDS011;19717;42.614;23.418;2023-02-28T04:55:44;3.50;;;2.60;;
33357;SDS011;19717;42.614;23.418;2023-02-28T04:58:10;3.47;;;2.97;;
33357;SDS011;19717;42.614;23.418;2023-02-28T05:00:36;3.60;;;2.97;;
33357;SDS011;19717;42.614;23.418;2023-02-28T05:03:03;4.45;;;3.15;;
33357;SDS011;19717;42.614;23.418;2023-02-28T05:05:29;4.68;;;2.50;;
33357;SDS011;19717;42.614;23.418;2023-02-28T05:07:55;3.00;;;2.70;;
33357;SDS011;19717;42.614;23.418;2023-02-28T05:10:21;2.00;;;1.85;;
33357;SDS011;19717;42.614;23.418;2023-02-28T05:12:48;2.67;;;2.20;;
33357;SDS011;19717;42.614;23.418;2023-02-28T05:15:14;2.25;;;1.95;;
33357;SDS011;19717;42.614;23.418;2023-02-28T05:17:41;5.65;;;2.85;;
33357;SDS011;19717;42.614;23.418;2023-02-28T05:20:08;2.58;;;1.70;;
33357;SDS011;19717;42.614;23.418;2023-02-28T05:22:38;2.13;;;1.80;;
33357;SDS011;19717;42.614;23.418;2023-02-28T05:25:05;6.57;;;2.53;;
33357;SDS011;19717;42.614;23.418;2023-02-28T05:27:31;3.25;;;2.53;;
33357;SDS011;19717;42.614;23.418;2023-02-28T05:29:58;3.38;;;2.58;;
33357;SDS011;19717;42.614;23.418;2023-02-28T05:32:24;4.85;;;3.50;;
33357;SDS011;19717;42.614;23.418;2023-02-28T05:34:50;6.53;;;3.88;;
33357;SDS011;19717;42.614;23.418;2023-02-28T05:37:16;5.25;;;3.45;;
33357;SDS011;19717;42.614;23.418;2023-02-28T05:39:42;3.90;;;3.58;;
33357;SDS011;19717;42.614;23.418;2023-02-28T05:42:08;9.65;;;4.18;;
33357;SDS011;19717;42.614;23.418;2023-02-28T05:44:35;11.75;;;5.45;;
33357;SDS011;19717;42.614;23.418;2023-02-28T05:47:01;5.38;;;3.85;;
33357;SDS011;19717;42.614;23.418;2023-02-28T05:49:27;3.05;;;2.55;;
33357;SDS011;19717;42.614;23.418;2023-02-28T05:51:53;6.05;;;2.70;;
33357;SDS011;19717;42.614;23.418;2023-02-28T05:54:19;3.85;;;3.58;;
33357;SDS011;19717;42.614;23.418;2023-02-28T05:56:45;5.72;;;2.72;;
33357;SDS011;19717;42.614;23.418;2023-02-28T05:59:12;2.65;;;2.22;;
33357;SDS011;19717;42.614;23.418;2023-02-28T06:01:39;2.72;;;2.55;;
33357;SDS011;19717;42.614;23.418;2023-02-28T06:04:07;8.60;;;3.75;;
33357;SDS011;19717;42.614;23.418;2023-02-28T06:06:33;6.38;;;3.70;;
33357;SDS011;19717;42.614;23.418;2023-02-28T06:08:59;6.00;;;2.90;;
33357;SDS011;19717;42.614;23.418;2023-02-28T06:11:26;7.32;;;4.07;;
33357;SDS011;19717;42.614;23.418;2023-02-28T06:13:56;4.63;;;3.08;;
33357;SDS011;19717;42.614;23.418;2023-02-28T06:16:24;4.37;;;3.27;;
33357;SDS011;19717;42.614;23.418;2023-02-28T06:18:50;4.15;;;3.15;;
33357;SDS011;19717;42.614;23.418;2023-02-28T06:21:17;5.68;;;4.20;;
33357;SDS011;19717;42.614;23.418;2023-02-28T06:23:43;6.93;;;5.20;;
33357;SDS011;19717;42.614;23.418;2023-02-28T06:26:10;7.97;;;4.90;;
33357;SDS011;19717;42.614;23.418;2023-02-28T06:28:36;14.63;;;5.22;;
33357;SDS011;19717;42.614;23.418;2023-02-28T06:31:09;9.23;;;6.63;;
33357;SDS011;19717;42.614;23.418;2023-02-28T06:33:35;11.50;;;4.85;;
33357;SDS011;19717;42.614;23.418;2023-02-28T06:36:02;13.00;;;5.72;;
33357;SDS011;19717;42.614;23.418;2023-02-28T06:38:29;15.15;;;7.88;;
33357;SDS011;19717;42.614;23.418;2023-02-28T06:40:55;18.08;;;5.85;;
33357;SDS011;19717;42.614;23.418;2023-02-28T06:43:22;55.25;;;23.00;;
33357;SDS011;19717;42.614;23.418;2023-02-28T06:45:48;39.75;;;14.00;;
33357;SDS011;19717;42.614;23.418;2023-02-28T06:48:14;23.77;;;10.90;;
33357;SDS011;19717;42.614;23.418;2023-02-28T06:50:40;8.07;;;5.28;;
33357;SDS011;19717;42.614;23.418;2023-02-28T06:53:06;13.00;;;7.28;;
33357;SDS011;19717;42.614;23.418;2023-02-28T06:55:32;16.92;;;7.45;;
33357;SDS011;19717;42.614;23.418;2023-02-28T06:57:58;11.45;;;6.00;;
33357;SDS011;19717;42.614;23.418;2023-02-28T07:00:24;9.90;;;4.70;;
33357;SDS011;19717;42.614;23.418;2023-02-28T07:02:50;5.57;;;3.92;;
33357;SDS011;19717;42.614;23.418;2023-02-28T07:05:18;7.85;;;4.25;;
33357;SDS011;19717;42.614;23.418;2023-02-28T07:07:44;5.82;;;4.07;;
33357;SDS011;19717;42.614;23.418;2023-02-28T07:10:12;5.82;;;4.03;;
33357;SDS011;19717;42.614;23.418;2023-02-28T07:12:41;7.88;;;4.38;;
33357;SDS011;19717;42.614;23.418;2023-02-28T07:15:08;6.05;;;3.58;;
33357;SDS011;19717;42.614;23.418;2023-02-28T07:17:34;3.60;;;2.25;;
33357;SDS011;19717;42.614;23.418;2023-02-28T07:20:01;3.65;;;2.97;;
33357;SDS011;19717;42.614;23.418;2023-02-28T07:22:29;6.20;;;4.10;;
33357;SDS011;19717;42.614;23.418;2023-02-28T07:24:55;6.72;;;3.75;;
33357;SDS011;19717;42.614;23.418;2023-02-28T07:27:21;5.53;;;3.40;;
33357;SDS011;19717;42.614;23.418;2023-02-28T07:29:51;7.75;;;4.25;;
33357;SDS011;19717;42.614;23.418;2023-02-28T07:32:17;5.88;;;3.40;;
33357;SDS011;19717;42.614;23.418;2023-02-28T07:34:43;4.63;;;2.85;;
33357;SDS011;19717;42.614;23.418;2023-02-28T07:37:10;5.95;;;4.13;;
33357;SDS011;19717;42.614;23.418;2023-02-28T07:39:36;6.68;;;3.65;;
33357;SDS011;19717;42.614;23.418;2023-02-28T07:42:05;7.57;;;3.67;;
33357;SDS011;19717;42.614;23.418;2023-02-28T07:44:34;3.55;;;3.15;;
33357;SDS011;19717;42.614;23.418;2023-02-28T07:47:05;6.68;;;3.53;;
33357;SDS011;19717;42.614;23.418;2023-02-28T07:49:31;8.63;;;3.88;;
33357;SDS011;19717;42.614;23.418;2023-02-28T07:51:57;8.95;;;6.05;;
33357;SDS011;19717;42.614;23.418;2023-02-28T07:54:23;11.27;;;4.95;;
33357;SDS011;19717;42.614;23.418;2023-02-28T07:56:49;12.02;;;4.78;;
33357;SDS011;19717;42.614;23.418;2023-02-28T07:59:15;10.70;;;4.50;;
33357;SDS011;19717;42.614;23.418;2023-02-28T08:01:41;4.80;;;3.15;;
33357;SDS011;19717;42.614;23.418;2023-02-28T08:04:09;4.85;;;3.67;;
33357;SDS011;19717;42.614;23.418;2023-02-28T08:06:35;5.75;;;4.32;;
33357;SDS011;19717;42.614;23.418;2023-02-28T08:09:01;5.63;;;3.67;;
33357;SDS011;19717;42.614;23.418;2023-02-28T08:11:28;5.38;;;3.47;;
33357;SDS011;19717;42.614;23.418;2023-02-28T08:13:54;7.00;;;2.50;;
33357;SDS011;19717;42.614;23.418;2023-02-28T08:16:20;8.48;;;4.28;;
33357;SDS011;19717;42.614;23.418;2023-02-28T08:18:56;7.55;;;4.07;;
33357;SDS011;19717;42.614;23.418;2023-02-28T08:21:22;11.15;;;4.70;;
33357;SDS011;19717;42.614;23.418;2023-02-28T08:23:48;9.60;;;2.63;;
33357;SDS011;19717;42.614;23.418;2023-02-28T08:26:18;6.88;;;3.30;;
33357;SDS011;19717;42.614;23.418;2023-02-28T08:28:45;20.15;;;4.00;;
33357;SDS011;19717;42.614;23.418;2023-02-28T08:31:12;6.63;;;4.22;;
33357;SDS011;19717;42.614;23.418;2023-02-28T08:33:40;3.83;;;2.53;;
33357;SDS011;19717;42.614;23.418;2023-02-28T08:36:06;5.32;;;2.67;;
33357;SDS011;19717;42.614;23.418;2023-02-28T08:38:33;4.45;;;3.67;;
33357;SDS011;19717;42.614;23.418;2023-02-28T08:41:00;5.25;;;3.20;;
33357;SDS011;19717;42.614;23.418;2023-02-28T08:43:26;7.70;;;2.78;;
33357;SDS011;19717;42.614;23.418;2023-02-28T08:45:53;5.85;;;2.67;;
33357;SDS011;19717;42.614;23.418;2023-02-28T08:48:21;12.27;;;3.30;;
33357;SDS011;19717;42.614;23.418;2023-02-28T08:53:22;5.32;;;2.63;;
33357;SDS011;19717;42.614;23.418;2023-02-28T08:55:55;7.63;;;2.78;;
33357;SDS011;19717;42.614;23.418;2023-02-28T08:58:21;4.40;;;2.45;;
33357;SDS011;19717;42.614;23.418;2023-02-28T09:00:47;4.00;;;2.60;;
33357;SDS011;19717;42.614;23.418;2023-02-28T09:03:13;3.95;;;2.13;;
33357;SDS011;19717;42.614;23.418;2023-02-28T09:05:39;12.85;;;3.38;;
33357;SDS011;19717;42.614;23.418;2023-02-28T09:08:05;1.35;;;1.25;;
33357;SDS011;19717;42.614;23.418;2023-02-28T09:10:31;1.83;;;1.63;;
33357;SDS011;19717;42.614;23.418;2023-02-28T09:12:59;3.47;;;1.80;;
33357;SDS011;19717;42.614;23.418;2023-02-28T09:15:25;2.95;;;2.13;;
33357;SDS011;19717;42.614;23.418;2023-02-28T09:17:51;3.22;;;2.20;;
33357;SDS011;19717;42.614;23.418;2023-02-28T09:20:17;7.95;;;2.72;;
33357;SDS011;19717;42.614;23.418;2023-02-28T09:22:43;2.05;;;1.85;;
33357;SDS011;19717;42.614;23.418;2023-02-28T09:25:09;3.92;;;2.15;;
33357;SDS011;19717;42.614;23.418;2023-02-28T09:27:35;7.20;;;2.88;;
33357;SDS011;19717;42.614;23.418;2023-02-28T09:30:02;5.15;;;3.33;;
33357;SDS011;19717;42.614;23.418;2023-02-28T09:32:28;4.72;;;2.63;;
33357;SDS011;19717;42.614;23.418;2023-02-28T09:34:54;1.65;;;1.05;;
33357;SDS011;19717;42.614;23.418;2023-02-28T09:37:20;2.63;;;1.67;;
33357;SDS011;19717;42.614;23.418;2023-02-28T09:39:46;2.75;;;2.30;;
33357;SDS011;19717;42.614;23.418;2023-02-28T09:42:21;2.85;;;1.70;;
33357;SDS011;19717;42.614;23.418;2023-02-28T09:44:47;2.08;;;1.88;;
33357;SDS011;19717;42.614;23.418;2023-02-28T09:49:44;1.27;;;1.00;;
33357;SDS011;19717;42.614;23.418;2023-02-28T09:52:14;5.30;;;1.98;;
33357;SDS011;19717;42.614;23.418;2023-02-28T09:54:41;3.63;;;2.15;;
33357;SDS011;19717;42.614;23.418;2023-02-28T10:05:13;5.03;;;2.13;;
33357;SDS011;19717;42.614;23.418;2023-02-28T10:12:52;3.03;;;1.25;;
33357;SDS011;19717;42.614;23.418;2023-02-28T10:15:18;4.88;;;1.83;;
33357;SDS011;19717;42.614;23.418;2023-02-28T10:17:47;4.53;;;2.78;;
33357;SDS011;19717;42.614;23.418;2023-02-28T10:20:20;4.10;;;1.80;;
33357;SDS011;19717;42.614;23.418;2023-02-28T10:22:57;6.70;;;2.45;;
33357;SDS011;19717;42.614;23.418;2023-02-28T10:25:26;8.00;;;1.88;;
33357;SDS011;19717;42.614;23.418;2023-02-28T10:27:53;2.45;;;1.80;;
33357;SDS011;19717;42.614;23.418;2023-02-28T10:30:19;6.18;;;3.15;;
33357;SDS011;19717;42.614;23.418;2023-02-28T10:32:49;7.22;;;2.65;;
33357;SDS011;19717;42.614;23.418;2023-02-28T10:35:19;1.48;;;1.38;;
33357;SDS011;19717;42.614;23.418;2023-02-28T10:37:46;4.25;;;1.38;;
33357;SDS011;19717;42.614;23.418;2023-02-28T10:45:20;3.90;;;2.42;;
33357;SDS011;19717;42.614;23.418;2023-02-28T10:47:53;3.15;;;1.58;;
33357;SDS011;19717;42.614;23.418;2023-02-28T10:50:27;7.43;;;2.38;;
33357;SDS011;19717;42.614;23.418;2023-02-28T10:52:54;3.72;;;1.67;;
33357;SDS011;19717;42.614;23.418;2023-02-28T10:55:24;6.90;;;2.40;;
33357;SDS011;19717;42.614;23.418;2023-02-28T10:57:51;7.75;;;3.72;;
33357;SDS011;19717;42.614;23.418;2023-02-28T11:00:25;10.88;;;2.97;;
33357;SDS011;19717;42.614;23.418;2023-02-28T11:02:57;2.95;;;2.60;;
33357;SDS011;19717;42.614;23.418;2023-02-28T11:05:27;3.88;;;2.45;;
33357;SDS011;19717;42.614;23.418;2023-02-28T11:07:58;2.00;;;1.87;;
33357;SDS011;19717;42.614;23.418;2023-02-28T11:10:26;3.50;;;2.22;;
33357;SDS011;19717;42.614;23.418;2023-02-28T11:12:55;4.57;;;1.75;;
33357;SDS011;19717;42.614;23.418;2023-02-28T11:20:23;8.10;;;2.42;;
33357;SDS011;19717;42.614;23.418;2023-02-28T11:22:50;2.53;;;1.92;;
33357;SDS011;19717;42.614;23.418;2023-02-28T11:25:24;3.25;;;2.20;;
33357;SDS011;19717;42.614;23.418;2023-02-28T11:27:52;6.43;;;2.63;;
33357;SDS011;19717;42.614;23.418;2023-02-28T11:32:51;7.43;;;2.30;;
33357;SDS011;19717;42.614;23.418;2023-02-28T11:35:18;3.65;;;2.55;;
33357;SDS011;19717;42.614;23.418;2023-02-28T11:37:47;4.43;;;2.25;;
33357;SDS011;19717;42.614;23.418;2023-02-28T11:40:18;5.60;;;2.47;;
33357;SDS011;19717;42.614;23.418;2023-02-28T11:45:34;7.55;;;2.95;;
33357;SDS011;19717;42.614;23.418;2023-02-28T11:58:36;4.55;;;2.35;;
33357;SDS011;19717;42.614;23.418;2023-02-28T12:11:19;7.38;;;2.40;;
33357;SDS011;19717;42.614;23.418;2023-02-28T12:27:17;3.55;;;1.55;;
33357;SDS011;19717;42.614;23.418;2023-02-28T12:30:06;3.83;;;2.20;;
33357;SDS011;19717;42.614;23.418;2023-02-28T12:32:33;5.10;;;3.03;;
33357;SDS011;19717;42.614;23.418;2023-02-28T12:35:04;7.90;;;2.67;;
33357;SDS011;19717;42.614;23.418;2023-02-28T12:37:41;3.38;;;1.30;;
33357;SDS011;19717;42.614;23.418;2023-02-28T12:40:12;6.93;;;1.95;;
33357;SDS011;19717;42.614;23.418;2023-02-28T12:42:39;9.60;;;2.05;;
33357;SDS011;19717;42.614;23.418;2023-02-28T12:47:34;9.93;;;2.88;;
33357;SDS011;19717;42.614;23.418;2023-02-28T12:50:04;6.32;;;3.03;;
33357;SDS011;19717;42.614;23.418;2023-02-28T12:54:58;6.03;;;1.83;;
33357;SDS011;19717;42.614;23.418;2023-02-28T12:57:34;2.63;;;1.90;;
33357;SDS011;19717;42.614;23.418;2023-02-28T13:00:04;5.10;;;1.80;;
33357;SDS011;19717;42.614;23.418;2023-02-28T13:05:17;4.35;;;2.92;;
33357;SDS011;19717;42.614;23.418;2023-02-28T13:12:52;4.35;;;1.52;;
33357;SDS011;19717;42.614;23.418;2023-02-28T13:17:52;1.52;;;1.08;;
33357;SDS011;19717;42.614;23.418;2023-02-28T13:20:29;6.45;;;2.00;;
33357;SDS011;19717;42.614;23.418;2023-02-28T13:22:58;3.25;;;1.98;;
33357;SDS011;19717;42.614;23.418;2023-02-28T13:28:11;6.35;;;2.65;;
33357;SDS011;19717;42.614;23.418;2023-02-28T13:33:25;3.10;;;1.63;;
33357;SDS011;19717;42.614;23.418;2023-02-28T13:38:40;3.13;;;2.20;;
33357;SDS011;19717;42.614;23.418;2023-02-28T13:46:28;4.82;;;3.00;;
33357;SDS011;19717;42.614;23.418;2023-02-28T13:48:55;4.93;;;2.47;;
33357;SDS011;19717;42.614;23.418;2023-02-28T13:51:40;4.18;;;1.95;;
33357;SDS011;19717;42.614;23.418;2023-02-28T13:54:13;9.73;;;2.67;;
33357;SDS011;19717;42.614;23.418;2023-02-28T13:56:51;4.68;;;2.35;;
33357;SDS011;19717;42.614;23.418;2023-02-28T13:59:22;5.63;;;3.78;;
33357;SDS011;19717;42.614;23.418;2023-02-28T14:07:03;2.03;;;1.83;;
33357;SDS011;19717;42.614;23.418;2023-02-28T14:10:20;5.45;;;2.30;;
33357;SDS011;19717;42.614;23.418;2023-02-28T14:15:04;1.83;;;1.13;;
33357;SDS011;19717;42.614;23.418;2023-02-28T14:17:51;5.38;;;1.67;;
33357;SDS011;19717;42.614;23.418;2023-02-28T14:20:17;2.90;;;1.83;;
33357;SDS011;19717;42.614;23.418;2023-02-28T14:22:56;4.53;;;1.77;;
33357;SDS011;19717;42.614;23.418;2023-02-28T14:25:38;5.88;;;3.00;;
33357;SDS011;19717;42.614;23.418;2023-02-28T14:31:09;3.45;;;1.65;;
33357;SDS011;19717;42.614;23.418;2023-02-28T14:36:22;4.50;;;2.50;;
33357;SDS011;19717;42.614;23.418;2023-02-28T14:38:57;3.20;;;1.95;;
33357;SDS011;19717;42.614;23.418;2023-02-28T14:41:28;4.50;;;1.90;;
33357;SDS011;19717;42.614;23.418;2023-02-28T14:43:58;3.75;;;2.47;;
33357;SDS011;19717;42.614;23.418;2023-02-28T14:46:28;2.97;;;1.70;;
33357;SDS011;19717;42.614;23.418;2023-02-28T14:48:55;1.83;;;1.23;;
33357;SDS011;19717;42.614;23.418;2023-02-28T14:51:22;10.70;;;2.42;;
33357;SDS011;19717;42.614;23.418;2023-02-28T14:53:50;3.85;;;2.13;;
33357;SDS011;19717;42.614;23.418;2023-02-28T14:56:24;9.77;;;2.20;;
33357;SDS011;19717;42.614;23.418;2023-02-28T14:58:52;8.25;;;2.88;;
33357;SDS011;19717;42.614;23.418;2023-02-28T15:01:19;9.48;;;2.50;;
33357;SDS011;19717;42.614;23.418;2023-02-28T15:03:46;17.13;;;6.78;;
33357;SDS011;19717;42.614;23.418;2023-02-28T15:06:13;1.98;;;1.80;;
33357;SDS011;19717;42.614;23.418;2023-02-28T15:08:40;8.85;;;3.45;;
33357;SDS011;19717;42.614;23.418;2023-02-28T15:13:37;10.02;;;3.42;;
33357;SDS011;19717;42.614;23.418;2023-02-28T15:16:05;6.30;;;3.33;;
33357;SDS011;19717;42.614;23.418;2023-02-28T15:18:55;3.45;;;2.20;;
33357;SDS011;19717;42.614;23.418;2023-02-28T15:21:20;2.03;;;1.65;;
33357;SDS011;19717;42.614;23.418;2023-02-28T15:24:09;1.45;;;1.30;;
33357;SDS011;19717;42.614;23.418;2023-02-28T15:26:34;2.60;;;1.85;;
33357;SDS011;19717;42.614;23.418;2023-02-28T15:29:04;1.52;;;1.42;;
33357;SDS011;19717;42.614;23.418;2023-02-28T15:31:31;2.30;;;1.83;;
33357;SDS011;19717;42.614;23.418;2023-02-28T15:34:02;11.00;;;3.55;;
33357;SDS011;19717;42.614;23.418;2023-02-28T15:36:29;7.97;;;2.78;;
33357;SDS011;19717;42.614;23.418;2023-02-28T15:38:58;3.38;;;2.03;;
33357;SDS011;19717;42.614;23.418;2023-02-28T15:41:35;1.52;;;1.15;;
33357;SDS011;19717;42.614;23.418;2023-02-28T15:44:17;3.35;;;1.85;;
33357;SDS011;19717;42.614;23.418;2023-02-28T15:46:54;2.05;;;0.88;;
33357;SDS011;19717;42.614;23.418;2023-02-28T15:49:21;3.40;;;1.83;;
33357;SDS011;19717;42.614;23.418;2023-02-28T15:51:49;2.22;;;2.03;;
33357;SDS011;19717;42.614;23.418;2023-02-28T15:54:20;6.07;;;1.52;;
33357;SDS011;19717;42.614;23.418;2023-02-28T15:56:49;4.10;;;1.15;;
33357;SDS011;19717;42.614;23.418;2023-02-28T15:59:21;1.85;;;1.27;;
33357;SDS011;19717;42.614;23.418;2023-02-28T16:01:52;3.47;;;1.73;;
33357;SDS011;19717;42.614;23.418;2023-02-28T16:04:27;1.17;;;0.90;;
33357;SDS011;19717;42.614;23.418;2023-02-28T16:09:25;1.90;;;1.42;;
33357;SDS011;19717;42.614;23.418;2023-02-28T16:11:53;1.67;;;1.25;;
33357;SDS011;19717;42.614;23.418;2023-02-28T16:14:26;14.52;;;5.97;;
33357;SDS011;19717;42.614;23.418;2023-02-28T16:17:03;13.45;;;6.53;;
33357;SDS011;19717;42.614;23.418;2023-02-28T16:19:29;3.13;;;2.53;;
33357;SDS011;19717;42.614;23.418;2023-02-28T16:21:56;1.73;;;1.20;;
33357;SDS011;19717;42.614;23.418;2023-02-28T16:24:22;11.27;;;3.50;;
33357;SDS011;19717;42.614;23.418;2023-02-28T16:26:48;2.28;;;1.33;;
33357;SDS011;19717;42.614;23.418;2023-02-28T16:29:24;3.78;;;2.00;;
33357;SDS011;19717;42.614;23.418;2023-02-28T16:31:50;9.30;;;2.03;;
33357;SDS011;19717;42.614;23.418;2023-02-28T16:34:16;4.03;;;1.33;;
33357;SDS011;19717;42.614;23.418;2023-02-28T16:36:42;3.60;;;2.25;;
33357;SDS011;19717;42.614;23.418;2023-02-28T16:39:11;1.15;;;1.08;;
33357;SDS011;19717;42.614;23.418;2023-02-28T16:41:37;6.18;;;2.08;;
33357;SDS011;19717;42.614;23.418;2023-02-28T16:44:03;1.35;;;0.90;;
33357;SDS011;19717;42.614;23.418;2023-02-28T16:46:35;5.75;;;1.83;;
33357;SDS011;19717;42.614;23.418;2023-02-28T16:49:01;4.00;;;1.75;;
33357;SDS011;19717;42.614;23.418;2023-02-28T16:51:27;2.40;;;1.25;;
33357;SDS011;19717;42.614;23.418;2023-02-28T16:53:53;1.15;;;1.02;;
33357;SDS011;19717;42.614;23.418;2023-02-28T16:56:21;1.13;;;0.98;;
33357;SDS011;19717;42.614;23.418;2023-02-28T16:58:48;1.08;;;0.98;;
33357;SDS011;19717;42.614;23.418;2023-02-28T17:01:15;1.30;;;1.02;;
33357;SDS011;19717;42.614;23.418;2023-02-28T17:03:41;1.27;;;1.17;;
33357;SDS011;19717;42.614;23.418;2023-02-28T17:06:16;1.55;;;1.35;;
33357;SDS011;19717;42.614;23.418;2023-02-28T17:08:42;1.55;;;1.00;;
33357;SDS011;19717;42.614;23.418;2023-02-28T17:11:08;1.10;;;1.02;;
33357;SDS011;19717;42.614;23.418;2023-02-28T17:13:34;0.77;;;0.70;;
33357;SDS011;19717;42.614;23.418;2023-02-28T17:16:01;1.33;;;1.05;;
33357;SDS011;19717;42.614;23.418;2023-02-28T17:18:27;0.77;;;0.70;;